createdAt,value
2022-09-28T00:01:20.842Z,12.33
2022-09-28T00:03:50.448Z,12.32
2022-09-28T00:06:21.376Z,12.31
2022-09-28T00:08:52.149Z,12.28
2022-09-28T00:11:22.379Z,12.25
2022-09-28T00:13:52.329Z,12.22
2022-09-28T00:16:23.265Z,12.19
2022-09-28T00:18:52.266Z,12.12
2022-09-28T00:21:25.538Z,12.09
2022-09-28T00:24:15.688Z,12.03
2022-09-28T00:26:54.485Z,11.99
2022-09-28T00:29:33.466Z,11.96
2022-09-28T00:32:04.779Z,11.91
2022-09-28T00:34:36.117Z,11.89
2022-09-28T00:37:05.896Z,11.89
2022-09-28T00:39:36.113Z,11.89
2022-09-28T00:42:10.962Z,11.89
2022-09-28T00:44:58.227Z,11.88
2022-09-28T00:47:57.070Z,11.88
2022-09-28T00:50:26.353Z,11.88
2022-09-28T00:53:20.591Z,11.88
2022-09-28T00:55:52.496Z,11.88
2022-09-28T00:58:24.895Z,11.88
2022-09-28T01:00:56.342Z,11.88
2022-09-28T01:03:25.456Z,11.89
2022-09-28T01:05:54.045Z,11.88
2022-09-28T01:08:22.223Z,11.87
2022-09-28T01:10:51.352Z,11.86
2022-09-28T01:13:21.026Z,11.84
2022-09-28T01:15:55.274Z,11.83
2022-09-28T01:18:45.132Z,11.82
2022-09-28T01:21:17.398Z,11.82
2022-09-28T01:24:11.542Z,11.83
2022-09-28T01:26:49.139Z,11.84
2022-09-28T01:29:18.787Z,11.84
2022-09-28T01:31:51.633Z,11.86
2022-09-28T01:34:26.254Z,11.88
2022-09-28T01:36:56.597Z,11.87
2022-09-28T01:39:30.592Z,11.86
2022-09-28T01:42:06.066Z,11.84
2022-09-28T01:44:39.861Z,11.84
2022-09-28T01:47:11.437Z,11.83
2022-09-28T01:49:48.464Z,11.82
2022-09-28T01:52:21.834Z,11.82
2022-09-28T01:54:54.920Z,11.85
2022-09-28T01:57:34.234Z,11.86
2022-09-28T02:00:14.256Z,11.86
2022-09-28T02:03:05.076Z,11.85
2022-09-28T02:06:04.199Z,11.84
2022-09-28T02:08:35.420Z,11.81
2022-09-28T02:11:15.357Z,11.78
2022-09-28T02:13:53.914Z,11.78
2022-09-28T02:16:47.640Z,11.77
2022-09-28T02:19:19.921Z,11.76
2022-09-28T02:21:58.961Z,11.75
2022-09-28T02:24:37.284Z,11.79
2022-09-28T02:27:19.800Z,11.81
2022-09-28T02:29:48.849Z,11.82
2022-09-28T02:32:18.273Z,11.82
2022-09-28T02:34:46.054Z,11.82
2022-09-28T02:37:14.047Z,11.82
2022-09-28T02:39:41.864Z,11.82
2022-09-28T02:42:21.220Z,11.83
2022-09-28T02:45:13.533Z,11.85
2022-09-28T02:48:09.169Z,11.85
2022-09-28T02:50:43.244Z,11.86
2022-09-28T02:53:20.932Z,11.87
2022-09-28T02:55:48.613Z,11.87
2022-09-28T02:58:28.776Z,11.88
2022-09-28T03:01:21.922Z,11.88
2022-09-28T03:04:02.146Z,11.85
2022-09-28T03:06:33.220Z,11.85
2022-09-28T03:09:08.780Z,11.80
2022-09-28T03:11:42.074Z,11.79
2022-09-28T03:14:10.486Z,11.77
2022-09-28T03:16:46.143Z,11.77
2022-09-28T03:19:14.748Z,11.77
2022-09-28T03:21:42.478Z,11.75
2022-09-28T03:24:11.306Z,11.75
2022-09-28T03:26:41.522Z,11.73
2022-09-28T03:29:09.702Z,11.72
2022-09-28T03:31:39.022Z,11.71
2022-09-28T03:34:07.206Z,11.71
2022-09-28T03:36:35.423Z,11.70
2022-09-28T03:39:04.458Z,11.70
2022-09-28T03:41:32.320Z,11.70
2022-09-28T03:44:00.207Z,11.70
2022-09-28T03:46:28.902Z,11.70
2022-09-28T03:48:59.469Z,11.69
2022-09-28T03:51:30.081Z,11.68
2022-09-28T03:53:58.629Z,11.66
2022-09-28T03:56:27.041Z,11.65
2022-09-28T03:58:55.242Z,11.63
2022-09-28T04:01:23.006Z,11.63
2022-09-28T04:03:57.368Z,11.60
2022-09-28T04:06:26.398Z,11.58
2022-09-28T04:08:54.922Z,11.57
2022-09-28T04:11:24.200Z,11.57
2022-09-28T04:13:52.005Z,11.57
2022-09-28T04:16:20.305Z,11.56
2022-09-28T04:19:04.756Z,11.55
2022-09-28T04:21:32.625Z,11.53
2022-09-28T04:24:11.694Z,11.52
2022-09-28T04:26:39.457Z,11.48
2022-09-28T04:29:19.661Z,11.45
2022-09-28T04:31:52.393Z,11.43
2022-09-28T04:34:22.911Z,11.42
2022-09-28T04:36:51.274Z,11.42
2022-09-28T04:39:19.961Z,11.38
2022-09-28T04:41:51.206Z,11.37
2022-09-28T04:44:19.013Z,11.34
2022-09-28T04:46:48.327Z,11.34
2022-09-28T04:49:38.390Z,11.34
2022-09-28T04:52:17.220Z,11.34
2022-09-28T04:54:46.377Z,11.33
2022-09-28T04:57:14.072Z,11.33
2022-09-28T04:59:42.472Z,11.31
2022-09-28T05:02:10.922Z,11.31
2022-09-28T05:05:05.777Z,11.32
2022-09-28T05:07:36.879Z,11.32
2022-09-28T05:10:07.398Z,11.34
2022-09-28T05:12:35.810Z,11.35
2022-09-28T05:15:04.979Z,11.33
2022-09-28T05:17:32.851Z,11.30
2022-09-28T05:20:42.229Z,11.29
2022-09-28T05:23:13.637Z,11.25
2022-09-28T05:25:45.293Z,11.23
2022-09-28T05:28:25.038Z,11.24
2022-09-28T05:31:22.244Z,11.29
2022-09-28T05:34:10.159Z,11.33
2022-09-28T05:36:40.323Z,11.33
2022-09-28T05:39:09.800Z,11.38
2022-09-28T05:41:37.807Z,11.38
2022-09-28T05:44:06.317Z,11.35
2022-09-28T05:46:35.535Z,11.35
2022-09-28T05:49:03.576Z,11.36
2022-09-28T05:51:31.630Z,11.38
2022-09-28T05:54:03.270Z,11.40
2022-09-28T05:56:34.401Z,11.44
2022-09-28T05:59:06.189Z,11.45
2022-09-28T06:01:35.295Z,11.51
2022-09-28T06:04:04.824Z,11.54
2022-09-28T06:06:35.002Z,11.57
2022-09-28T06:09:02.861Z,11.62
2022-09-28T06:11:53.636Z,11.74
2022-09-28T06:14:31.111Z,11.82
2022-09-28T06:16:58.934Z,11.86
2022-09-28T06:19:27.133Z,11.96
2022-09-28T06:22:09.050Z,12.00
2022-09-28T06:24:50.402Z,12.02
2022-09-28T06:27:18.294Z,12.06
2022-09-28T06:29:46.201Z,12.09
2022-09-28T06:32:13.962Z,12.11
2022-09-28T06:34:44.039Z,12.23
2022-09-28T06:37:11.818Z,12.34
2022-09-28T06:39:39.711Z,12.43
2022-09-28T06:42:07.585Z,12.49
2022-09-28T06:45:04.692Z,12.65
2022-09-28T06:47:58.426Z,12.71
2022-09-28T06:50:38.047Z,12.77
2022-09-28T06:53:14.037Z,12.81
2022-09-28T06:56:16.889Z,13.00
2022-09-28T06:58:45.606Z,13.13
2022-09-28T07:01:13.566Z,13.29
2022-09-28T07:03:55.408Z,13.43
2022-09-28T07:06:56.331Z,13.73
2022-09-28T07:09:46.593Z,13.90
2022-09-28T07:12:51.729Z,14.06
2022-09-28T07:15:27.395Z,14.14
2022-09-28T07:18:02.591Z,14.12
2022-09-28T07:20:38.811Z,14.03
2022-09-28T07:23:18.955Z,14.01
2022-09-28T07:26:08.871Z,14.14
2022-09-28T07:29:06.625Z,15.14
2022-09-28T07:31:54.123Z,15.78
2022-09-28T07:34:44.527Z,15.70
2022-09-28T07:37:36.206Z,15.68
2022-09-28T07:40:24.133Z,15.65
2022-09-28T07:42:52.105Z,15.71
2022-09-28T07:45:20.855Z,15.85
2022-09-28T07:47:50.731Z,15.90
2022-09-28T07:50:37.124Z,15.90
2022-09-28T07:53:14.077Z,15.95
2022-09-28T07:56:17.314Z,15.78
2022-09-28T07:59:17.616Z,15.63
2022-09-28T08:02:03.868Z,15.41
2022-09-28T08:04:31.744Z,15.32
2022-09-28T08:07:00.383Z,15.53
2022-09-28T08:09:29.516Z,15.76
2022-09-28T08:12:33.007Z,16.05
2022-09-28T08:15:13.431Z,16.37
2022-09-28T08:17:49.582Z,16.63
2022-09-28T08:20:38.648Z,17.06
2022-09-28T08:23:08.689Z,17.54
2022-09-28T08:25:38.295Z,18.09
2022-09-28T08:28:07.417Z,18.74
2022-09-28T08:30:41.469Z,19.24
2022-09-28T08:33:27.473Z,19.93
2022-09-28T08:36:14.081Z,20.12
2022-09-28T08:39:05.258Z,20.34
2022-09-28T08:42:20.999Z,21.36
2022-09-28T08:45:12.781Z,22.09
2022-09-28T08:48:30.403Z,23.61
2022-09-28T08:51:26.823Z,25.28
2022-09-28T08:54:18.791Z,26.96
2022-09-28T08:57:08.251Z,28.21
2022-09-28T08:59:44.072Z,28.08
2022-09-28T09:02:23.497Z,30.46
2022-09-28T09:04:53.455Z,31.15
2022-09-28T09:07:49.278Z,33.44
2022-09-28T09:10:55.312Z,36.01
2022-09-28T09:14:06.839Z,39.08
2022-09-28T09:17:13.378Z,41.00
2022-09-28T09:20:03.460Z,41.30
2022-09-28T09:23:00.271Z,42.33
2022-09-28T09:25:38.886Z,43.42
2022-09-28T09:28:57.723Z,41.06
2022-09-28T09:31:51.486Z,38.20
2022-09-28T09:34:35.443Z,38.53
2022-09-28T09:37:41.187Z,38.31
2022-09-28T09:40:34.191Z,39.34
2022-09-28T09:43:59.992Z,37.25
2022-09-28T09:46:58.446Z,36.18
2022-09-28T09:50:30.811Z,34.45
2022-09-28T09:53:34.835Z,31.81
2022-09-28T09:56:14.982Z,29.70
2022-09-28T09:59:07.962Z,28.31
2022-09-28T10:01:41.542Z,27.30
2022-09-28T10:04:23.609Z,26.71
2022-09-28T10:06:58.215Z,26.33
2022-09-28T10:09:53.724Z,26.32
2022-09-28T10:12:49.785Z,30.89
2022-09-28T10:15:30.213Z,33.79
2022-09-28T10:18:11.979Z,37.19
2022-09-28T10:21:07.162Z,37.90
2022-09-28T10:23:52.515Z,35.32
2022-09-28T10:26:25.373Z,33.33
2022-09-28T10:29:05.781Z,31.52
2022-09-28T10:31:44.608Z,30.02
2022-09-28T10:34:30.330Z,28.32
2022-09-28T10:37:04.553Z,27.14
2022-09-28T10:39:47.550Z,26.10
2022-09-28T10:42:20.941Z,25.07
2022-09-28T10:44:55.518Z,25.24
2022-09-28T10:47:35.598Z,26.62
2022-09-28T10:50:28.125Z,27.56
2022-09-28T10:53:20.634Z,28.74
2022-09-28T10:56:12.765Z,29.15
2022-09-28T10:58:42.683Z,29.22
2022-09-28T11:01:18.679Z,28.58
2022-09-28T11:03:58.609Z,28.10
2022-09-28T11:06:38.116Z,28.12
2022-09-28T11:09:30.574Z,26.87
2022-09-28T11:12:03.835Z,25.83
2022-09-28T11:14:42.626Z,24.67
2022-09-28T11:17:38.820Z,23.42
2022-09-28T11:20:27.758Z,22.76
2022-09-28T11:22:57.852Z,22.24
2022-09-28T11:25:29.613Z,21.65
2022-09-28T11:28:00.522Z,21.20
2022-09-28T11:30:35.070Z,20.60
2022-09-28T11:33:38.922Z,20.05
2022-09-28T11:36:46.610Z,19.72
2022-09-28T11:39:32.311Z,19.47
2022-09-28T11:42:16.063Z,19.33
2022-09-28T11:44:49.178Z,19.01
2022-09-28T11:47:40.063Z,18.83
2022-09-28T11:50:41.172Z,18.68
2022-09-28T11:53:22.523Z,18.56
2022-09-28T11:56:19.362Z,19.51
2022-09-28T11:58:53.861Z,20.46
2022-09-28T12:01:44.050Z,21.00
2022-09-28T12:04:28.647Z,21.54
2022-09-28T12:07:01.750Z,22.27
2022-09-28T12:09:36.177Z,21.98
2022-09-28T12:12:40.378Z,21.36
2022-09-28T12:15:19.751Z,20.93
2022-09-28T12:18:14.233Z,20.13
2022-09-28T12:20:46.086Z,19.18
2022-09-28T12:23:19.167Z,18.55
2022-09-28T12:25:52.170Z,18.18
2022-09-28T12:28:42.422Z,18.11
2022-09-28T12:31:17.365Z,18.13
2022-09-28T12:33:48.259Z,18.04
2022-09-28T12:36:20.197Z,18.11
2022-09-28T12:39:08.758Z,18.42
2022-09-28T12:41:42.443Z,18.51
2022-09-28T12:44:49.279Z,18.41
2022-09-28T12:47:44.199Z,18.42
2022-09-28T12:50:42.694Z,18.33
2022-09-28T12:53:26.855Z,17.98
2022-09-28T12:56:21.542Z,17.76
2022-09-28T12:59:20.909Z,17.51
2022-09-28T13:02:02.363Z,17.38
2022-09-28T13:04:56.329Z,17.31
2022-09-28T13:07:37.137Z,17.20
2022-09-28T13:10:32.558Z,17.03
2022-09-28T13:13:19.033Z,16.84
2022-09-28T13:15:54.291Z,16.62
2022-09-28T13:18:24.463Z,16.40
2022-09-28T13:20:54.921Z,16.27
2022-09-28T13:23:25.394Z,16.16
2022-09-28T13:26:14.916Z,16.12
2022-09-28T13:28:43.644Z,16.02
2022-09-28T13:31:13.046Z,15.95
2022-09-28T13:33:43.949Z,15.89
2022-09-28T13:36:33.077Z,15.88
2022-09-28T13:39:01.200Z,15.85
2022-09-28T13:41:33.058Z,15.84
2022-09-28T13:44:13.123Z,15.84
2022-09-28T13:46:50.062Z,15.87
2022-09-28T13:49:35.154Z,15.87
2022-09-28T13:52:13.460Z,15.95
2022-09-28T13:55:06.068Z,16.05
2022-09-28T13:57:50.970Z,16.10
2022-09-28T14:00:30.779Z,16.18
2022-09-28T14:03:04.118Z,16.22
2022-09-28T14:05:47.350Z,16.30
2022-09-28T14:08:24.021Z,16.31
2022-09-28T14:10:57.440Z,16.20
2022-09-28T14:13:43.607Z,16.13
2022-09-28T14:16:23.963Z,16.04
2022-09-28T14:18:59.169Z,16.04
2022-09-28T14:21:29.675Z,16.13
2022-09-28T14:24:00.303Z,16.10
2022-09-28T14:26:49.858Z,15.96
2022-09-28T14:29:29.388Z,15.99
2022-09-28T14:32:09.275Z,16.01
2022-09-28T14:34:48.667Z,15.96
2022-09-28T14:37:37.173Z,15.87
2022-09-28T14:40:35.825Z,15.81
2022-09-28T14:43:24.586Z,15.79
2022-09-28T14:46:25.693Z,15.72
2022-09-28T14:49:03.868Z,15.68
2022-09-28T14:51:33.929Z,15.66
2022-09-28T14:54:10.614Z,15.65
2022-09-28T14:56:59.976Z,15.60
2022-09-28T14:59:36.200Z,15.47
2022-09-28T15:02:20.025Z,15.38
2022-09-28T15:04:54.730Z,15.28
2022-09-28T15:07:25.027Z,15.20
2022-09-28T15:09:56.273Z,15.15
2022-09-28T15:12:31.298Z,15.11
2022-09-28T15:15:02.465Z,15.09
2022-09-28T15:17:39.484Z,15.11
2022-09-28T15:20:30.673Z,15.09
2022-09-28T15:22:59.640Z,15.01
2022-09-28T15:25:29.604Z,14.94
2022-09-28T15:28:03.454Z,14.90
2022-09-28T15:30:36.727Z,14.84
2022-09-28T15:33:23.643Z,14.77
2022-09-28T15:35:51.336Z,14.69
2022-09-28T15:38:19.173Z,14.60
2022-09-28T15:40:47.787Z,14.53
2022-09-28T15:43:29.133Z,14.46
2022-09-28T15:46:05.154Z,14.36
2022-09-28T15:48:51.794Z,14.28
2022-09-28T15:51:21.338Z,14.17
2022-09-28T15:54:13.048Z,14.11
2022-09-28T15:56:52.833Z,14.00
2022-09-28T15:59:32.027Z,13.92
2022-09-28T16:02:24.205Z,13.87
2022-09-28T16:04:58.779Z,13.83
2022-09-28T16:07:38.707Z,13.77
2022-09-28T16:10:12.939Z,13.68
2022-09-28T16:12:50.254Z,13.59
2022-09-28T16:15:20.568Z,13.51
2022-09-28T16:18:00.557Z,13.45
2022-09-28T16:20:37.993Z,13.38
2022-09-28T16:23:15.489Z,13.32
2022-09-28T16:25:49.459Z,13.26
2022-09-28T16:28:34.591Z,13.19
2022-09-28T16:31:07.714Z,13.14
2022-09-28T16:33:40.566Z,13.11
2022-09-28T16:36:12.712Z,13.07
2022-09-28T16:38:44.585Z,13.07
2022-09-28T16:41:13.902Z,13.06
2022-09-28T16:43:41.669Z,13.03
2022-09-28T16:46:13.265Z,12.98
2022-09-28T16:48:48.550Z,12.95
2022-09-28T16:51:21.031Z,12.91
2022-09-28T16:54:08.412Z,12.89
2022-09-28T16:56:36.763Z,12.89
2022-09-28T16:59:04.854Z,12.89
2022-09-28T17:01:32.957Z,12.90
2022-09-28T17:04:01.170Z,12.91
2022-09-28T17:06:29.151Z,12.94
2022-09-28T17:08:59.169Z,12.98
2022-09-28T17:11:27.050Z,13.03
2022-09-28T17:13:59.029Z,13.05
2022-09-28T17:17:06.147Z,13.04
2022-09-28T17:19:28.823Z,13.04
2022-09-28T17:21:56.631Z,13.04
2022-09-28T17:24:24.488Z,13.00
2022-09-28T17:26:52.350Z,12.97
2022-09-28T17:29:20.368Z,12.96
2022-09-28T17:31:48.149Z,12.92
2022-09-28T17:34:16.980Z,12.85
2022-09-28T17:36:45.007Z,12.81
2022-09-28T17:39:15.052Z,12.73
2022-09-28T17:41:42.970Z,12.63
2022-09-28T17:44:11.994Z,12.57
2022-09-28T17:46:48.961Z,12.54
2022-09-28T17:49:17.183Z,12.52
2022-09-28T17:51:45.507Z,12.48
2022-09-28T17:54:13.699Z,12.45
2022-09-28T17:56:42.619Z,12.45
2022-09-28T17:59:13.410Z,12.43
2022-09-28T18:01:41.203Z,12.41
2022-09-28T18:04:27.649Z,12.39
2022-09-28T18:07:00.102Z,12.39
2022-09-28T18:09:28.011Z,12.37
2022-09-28T18:12:02.859Z,12.36
2022-09-28T18:14:30.805Z,12.34
2022-09-28T18:16:58.459Z,12.31
2022-09-28T18:19:31.787Z,12.29
2022-09-28T18:22:01.599Z,12.28
2022-09-28T18:24:29.852Z,12.25
2022-09-28T18:26:57.612Z,12.23
2022-09-28T18:29:28.012Z,12.19
2022-09-28T18:31:57.827Z,12.15
2022-09-28T18:34:25.739Z,12.12
2022-09-28T18:36:53.572Z,12.07
2022-09-28T18:39:21.439Z,12.03
2022-09-28T18:41:49.180Z,11.99
2022-09-28T18:44:16.909Z,11.96
2022-09-28T18:46:44.829Z,11.94
2022-09-28T18:49:12.594Z,11.91
2022-09-28T18:51:40.363Z,11.88
2022-09-28T18:54:08.209Z,11.80
2022-09-28T18:56:37.966Z,11.72
2022-09-28T18:59:12.295Z,11.65
2022-09-28T19:01:41.977Z,11.55
2022-09-28T19:04:10.587Z,11.48
2022-09-28T19:06:42.815Z,11.43
2022-09-28T19:09:11.287Z,11.39
2022-09-28T19:11:38.958Z,11.37
2022-09-28T19:14:06.677Z,11.31
2022-09-28T19:16:34.578Z,11.27
2022-09-28T19:19:03.213Z,11.20
2022-09-28T19:21:31.599Z,11.12
2022-09-28T19:24:03.236Z,11.05
2022-09-28T19:26:32.864Z,11.01
2022-09-28T19:29:02.820Z,10.97
2022-09-28T19:31:31.710Z,10.98
2022-09-28T19:33:59.791Z,11.00
2022-09-28T19:36:28.598Z,11.01
2022-09-28T19:38:58.135Z,11.00
2022-09-28T19:41:51.121Z,10.99
2022-09-28T19:44:25.150Z,11.00
2022-09-28T19:46:58.941Z,11.00
2022-09-28T19:49:27.828Z,11.00
2022-09-28T19:52:12.312Z,11.00
2022-09-28T19:54:44.571Z,10.97
2022-09-28T19:57:14.415Z,10.92
2022-09-28T19:59:42.095Z,10.86
2022-09-28T20:02:10.801Z,10.81
2022-09-28T20:04:38.838Z,10.76
2022-09-28T20:07:06.529Z,10.75
2022-09-28T20:09:34.251Z,10.70
2022-09-28T20:12:01.978Z,10.66
2022-09-28T20:14:34.263Z,10.62
2022-09-28T20:17:06.084Z,10.57
2022-09-28T20:19:35.011Z,10.50
2022-09-28T20:22:03.256Z,10.44
2022-09-28T20:24:32.264Z,10.37
2022-09-28T20:27:01.333Z,10.27
2022-09-28T20:29:31.868Z,10.16
2022-09-28T20:32:00.416Z,10.05
2022-09-28T20:34:28.106Z,9.98
2022-09-28T20:36:55.773Z,9.92
2022-09-28T20:39:23.490Z,9.84
2022-09-28T20:41:51.787Z,9.77
2022-09-28T20:44:20.108Z,9.70
2022-09-28T20:46:51.800Z,9.65
2022-09-28T20:49:19.464Z,9.60
2022-09-28T20:51:47.162Z,9.56
2022-09-28T20:54:15.201Z,9.52
2022-09-28T20:56:43.178Z,9.49
2022-09-28T20:59:12.306Z,9.43
2022-09-28T21:01:40.395Z,9.40
2022-09-28T21:04:09.457Z,9.37
2022-09-28T21:06:39.634Z,9.33
2022-09-28T21:09:08.627Z,9.30
2022-09-28T21:11:36.537Z,9.25
2022-09-28T21:14:06.341Z,9.22
2022-09-28T21:16:35.148Z,9.18
2022-09-28T21:19:03.748Z,9.13
2022-09-28T21:21:32.133Z,9.07
2022-09-28T21:23:59.979Z,9.02
2022-09-28T21:26:29.043Z,8.97
2022-09-28T21:29:07.885Z,8.92
2022-09-28T21:31:40.700Z,8.84
2022-09-28T21:34:13.389Z,8.76
2022-09-28T21:36:43.300Z,8.70
2022-09-28T21:39:10.957Z,8.64
2022-09-28T21:41:39.203Z,8.60
2022-09-28T21:44:07.364Z,8.56
2022-09-28T21:46:36.506Z,8.55
2022-09-28T21:49:07.515Z,8.54
2022-09-28T21:51:36.039Z,8.52
2022-09-28T21:54:03.913Z,8.49
2022-09-28T21:56:31.736Z,8.48
2022-09-28T21:59:01.207Z,8.49
2022-09-28T22:01:29.101Z,8.47
2022-09-28T22:03:57.475Z,8.46
2022-09-28T22:06:29.772Z,8.44
2022-09-28T22:08:58.163Z,8.44
2022-09-28T22:11:27.600Z,8.44
2022-09-28T22:13:58.730Z,8.41
2022-09-28T22:16:29.369Z,8.39
2022-09-28T22:18:58.795Z,8.37
2022-09-28T22:21:29.480Z,8.35
2022-09-28T22:24:05.595Z,8.34
2022-09-28T22:26:35.536Z,8.32
2022-09-28T22:29:08.442Z,8.31
2022-09-28T22:31:38.708Z,8.29
2022-09-28T22:34:08.602Z,8.28
2022-09-28T22:36:36.728Z,8.26
2022-09-28T22:39:04.656Z,8.25
2022-09-28T22:41:32.921Z,8.22
2022-09-28T22:44:01.401Z,8.20
2022-09-28T22:46:31.942Z,8.18
2022-09-28T22:49:00.003Z,8.18
2022-09-28T22:51:29.483Z,8.18
2022-09-28T22:53:57.378Z,8.17
2022-09-28T22:56:25.691Z,8.16
2022-09-28T22:58:53.723Z,8.16
2022-09-28T23:01:23.697Z,8.16
2022-09-28T23:03:52.444Z,8.14
2022-09-28T23:06:21.893Z,8.09
2022-09-28T23:08:50.815Z,8.03
2022-09-28T23:11:19.461Z,8.02
2022-09-28T23:13:55.607Z,8.01
2022-09-28T23:16:25.695Z,8.00
2022-09-28T23:18:55.110Z,8.01
2022-09-28T23:21:25.944Z,8.00
2022-09-28T23:23:56.374Z,7.99
2022-09-28T23:26:26.941Z,7.99
2022-09-28T23:28:55.426Z,7.98
2022-09-28T23:31:26.335Z,7.99
2022-09-28T23:33:58.946Z,7.98
2022-09-28T23:36:27.205Z,7.98
2022-09-28T23:38:55.484Z,7.97
2022-09-28T23:41:23.522Z,7.99
2022-09-28T23:43:51.355Z,8.00
2022-09-28T23:46:21.241Z,8.03
2022-09-28T23:48:50.517Z,8.08
2022-09-28T23:51:18.269Z,8.12
2022-09-28T23:53:47.023Z,8.17
2022-09-28T23:56:15.446Z,8.22
2022-09-28T23:58:43.125Z,8.25
